CMA CGM Tosca — FMEL — position and weather

sailwx.info

Track history (hours):
 
Tides and Currents Weather Stations Pressure Air Temp Water Temp Dewpoint Dewpoint Depression Visibility Wind Speed Wind Dir Waves Ship Positions

CMA CGM Tosca

Last reported at 2016-Apr-08 05:20 UTC. Time now 2016-Apr-29 03:59 UTC.
Position N 31°00' E 032°19'.
Warning: this ship's position is 20 days out of date.

Length 334 m; draft 14.4 m.

Type: Ship. MMSI: 228335900.

Date/timePositionNaut miles runAvg speedWind from/ knotsBaromVisibWave heightAir tempDewpointWater temp
2016-Apr-08 05:20N 31°00' E 032°19'7 8.3
2016-Apr-08 04:32N 31°07' E 032°19'7 6.4
2016-Apr-08 03:30N 31°13' E 032°21'0 0.0
2016-Apr-07 23:06N 31°13' E 032°21'0 0.0
2016-Apr-07 22:30N 31°13' E 032°21'0 0.0
2016-Apr-07 20:27N 31°13' E 032°21'0 0.0
2016-Apr-07 19:33N 31°13' E 032°21'0 0.0
2016-Apr-07 15:30N 31°13' E 032°21'0 0.0
2016-Apr-07 13:33N 31°13' E 032°21'0 0.0
2016-Apr-07 12:28N 31°13' E 032°21'0 0.0
2016-Apr-07 11:18N 31°13' E 032°21'0 0.1
2016-Apr-07 10:33N 31°13' E 032°21'5 5.4
2016-Apr-07 09:33N 31°18' E 032°22'8 7.6
2016-Apr-07 08:34N 31°26' E 032°24'4 3.1
2016-Apr-07 07:24N 31°28' E 032°21'0 0.2
2016-Apr-07 06:33N 31°28' E 032°21'2110.4
2016-Apr-07 04:33N 31°44' E 032°36'2812.6
2016-Apr-07 02:17N 32°04' E 032°60'1513.1
2016-Apr-07 01:08N 32°14' E 033°13'813.0
2016-Apr-07 00:33N 32°19' E 033°20'1312.9
2016-Apr-06 23:34N 32°27' E 033°31'1313.0
2016-Apr-06 22:34N 32°36' E 033°43'1513.2
2016-Apr-06 21:25N 32°46' E 033°56'1513.0
2016-Apr-06 20:17N 32°56' E 034°09'912.9
2016-Apr-06 19:33N 33°03' E 034°17'1312.9
2016-Apr-06 18:34N 33°13' E 034°26'1312.9
2016-Apr-06 17:33N 33°23' E 034°35'1312.7
2016-Apr-06 16:33N 33°34' E 034°44'1312.9
2016-Apr-06 15:34N 33°44' E 034°54'1313.0
2016-Apr-06 14:33N 33°53' E 035°05'1312.7
2016-Apr-06 13:34N 33°54' E 035°20'11 9.8
2016-Apr-06 12:28N 33°55' E 035°33'1 0.1
2016-Apr-05 21:27N 33°55' E 035°32'0 0.0
2016-Apr-05 20:12N 33°55' E 035°32'4 2.2
2016-Apr-05 18:31N 33°55' E 035°28'1718.2
2016-Apr-05 17:33N 33°54' E 035°07'2020.1
2016-Apr-05 16:33N 33°55' E 034°43'2019.9
2016-Apr-05 15:33N 33°56' E 034°19'2020.0
2016-Apr-05 14:33N 33°57' E 033°55'1717.1
2016-Apr-05 13:33N 33°55' E 033°34'1212.0
2016-Apr-05 12:33N 33°59' E 033°21'2019.6
2016-Apr-05 11:33N 33°60' E 032°57'1919.5
2016-Apr-05 10:33N 34°01' E 032°34'1919.4
2016-Apr-05 09:33N 34°02' E 032°10'1919.2
2016-Apr-05 08:33N 34°03' E 031°47'2019.7
2016-Apr-05 07:33N 34°04' E 031°24'2019.6
2016-Apr-05 06:33N 34°05' E 030°60'2120.7
2016-Apr-05 05:31N 34°06' E 030°34'6819.7
2016-Apr-05 02:05N 34°10' E 029°12'1019.5
2016-Apr-05 01:33N 34°11' E 028°60'4219.6
2016-Apr-04 23:23N 34°13' E 028°09'1619.5
2016-Apr-04 22:33N 34°14' E 027°49'45418.7
2016-Apr-03 22:17N 35°35' E 018°44'1518.6
2016-Apr-03 21:30N 35°39' E 018°26'9518.6
2016-Apr-03 16:22N 36°03' E 016°33'3318.4
2016-Apr-03 14:33N 36°12' E 015°53'5718.1
2016-Apr-03 11:23N 36°27' E 014°44'1518.0
2016-Apr-03 10:33N 36°30' E 014°26'1817.8
2016-Apr-03 09:33N 36°35' E 014°04'1818.4
2016-Apr-03 08:33N 36°39' E 013°42'1818.2
2016-Apr-03 07:33N 36°44' E 013°20'89719.1
2016-Apr-01 08:31N 35°59' W 005°13'24616.0
2016-Mar-31 17:09N 37°45' W 009°50'1418.3
2016-Mar-31 16:23N 37°59' W 009°55'1518.6
2016-Mar-31 15:33N 38°14' W 009°59'1918.6
2016-Mar-31 14:33N 38°32' W 010°05'1818.4
2016-Mar-31 13:33N 38°51' W 010°07'1918.9
2016-Mar-31 12:33N 39°10' W 010°07'70317.6
2016-Mar-29 20:34N 49°50' W 003°22'1717.1
2016-Mar-29 19:33N 49°58' W 002°58'9418.7
2016-Mar-29 14:33N 49°42' W 000°35'1818.1
2016-Mar-29 13:34N 49°33' W 000°11'1313.2
2016-Mar-29 12:33N 49°28' E 000°08'1 1.4
2016-Mar-29 11:33N 49°29' E 000°10'0 0.0
2016-Mar-29 10:33N 49°29' E 000°10'0 0.0
2016-Mar-29 09:33N 49°29' E 000°10'0 0.0
2016-Mar-29 08:33N 49°29' E 000°10'0 0.0
2016-Mar-29 07:33N 49°29' E 000°10'0 0.0
2016-Mar-29 06:33N 49°29' E 000°10'0 0.0
2016-Mar-29 05:33N 49°29' E 000°10'  
Track history (hours):
 
Tides and Currents Weather Stations Pressure Air Temp Water Temp Dewpoint Dewpoint Depression Visibility Wind Speed Wind Dir Waves Ship Positions

CMA CGM Tosca

Last reported at 2016-Apr-08 05:20 UTC. Time now 2016-Apr-29 03:59 UTC.
Position N 31°00' E 032°19'.
Warning: this ship's position is 20 days out of date.

Length 334 m; draft 14.4 m.

Type: Ship. MMSI: 228335900.

Date/timePositionNaut miles runAvg speedWind from/ knotsBaromVisibWave heightAir tempDewpointWater temp
2016-Apr-08 05:20N 31°00' E 032°19'7 8.3
2016-Apr-08 04:32N 31°07' E 032°19'7 6.4
2016-Apr-08 03:30N 31°13' E 032°21'0 0.0
2016-Apr-07 23:06N 31°13' E 032°21'0 0.0
2016-Apr-07 22:30N 31°13' E 032°21'0 0.0
2016-Apr-07 20:27N 31°13' E 032°21'0 0.0
2016-Apr-07 19:33N 31°13' E 032°21'0 0.0
2016-Apr-07 15:30N 31°13' E 032°21'0 0.0
2016-Apr-07 13:33N 31°13' E 032°21'0 0.0
2016-Apr-07 12:28N 31°13' E 032°21'0 0.0
2016-Apr-07 11:18N 31°13' E 032°21'0 0.1
2016-Apr-07 10:33N 31°13' E 032°21'5 5.4
2016-Apr-07 09:33N 31°18' E 032°22'8 7.6
2016-Apr-07 08:34N 31°26' E 032°24'4 3.1
2016-Apr-07 07:24N 31°28' E 032°21'0 0.2
2016-Apr-07 06:33N 31°28' E 032°21'2110.4
2016-Apr-07 04:33N 31°44' E 032°36'2812.6
2016-Apr-07 02:17N 32°04' E 032°60'1513.1
2016-Apr-07 01:08N 32°14' E 033°13'813.0
2016-Apr-07 00:33N 32°19' E 033°20'1312.9
2016-Apr-06 23:34N 32°27' E 033°31'1313.0
2016-Apr-06 22:34N 32°36' E 033°43'1513.2
2016-Apr-06 21:25N 32°46' E 033°56'1513.0
2016-Apr-06 20:17N 32°56' E 034°09'912.9
2016-Apr-06 19:33N 33°03' E 034°17'1312.9
2016-Apr-06 18:34N 33°13' E 034°26'1312.9
2016-Apr-06 17:33N 33°23' E 034°35'1312.7
2016-Apr-06 16:33N 33°34' E 034°44'1312.9
2016-Apr-06 15:34N 33°44' E 034°54'1313.0
2016-Apr-06 14:33N 33°53' E 035°05'1312.7
2016-Apr-06 13:34N 33°54' E 035°20'11 9.8
2016-Apr-06 12:28N 33°55' E 035°33'1 0.1
2016-Apr-05 21:27N 33°55' E 035°32'0 0.0
2016-Apr-05 20:12N 33°55' E 035°32'4 2.2
2016-Apr-05 18:31N 33°55' E 035°28'1718.2
2016-Apr-05 17:33N 33°54' E 035°07'2020.1
2016-Apr-05 16:33N 33°55' E 034°43'2019.9
2016-Apr-05 15:33N 33°56' E 034°19'2020.0
2016-Apr-05 14:33N 33°57' E 033°55'1717.1
2016-Apr-05 13:33N 33°55' E 033°34'1212.0
2016-Apr-05 12:33N 33°59' E 033°21'2019.6
2016-Apr-05 11:33N 33°60' E 032°57'1919.5
2016-Apr-05 10:33N 34°01' E 032°34'1919.4
2016-Apr-05 09:33N 34°02' E 032°10'1919.2
2016-Apr-05 08:33N 34°03' E 031°47'2019.7
2016-Apr-05 07:33N 34°04' E 031°24'2019.6
2016-Apr-05 06:33N 34°05' E 030°60'2120.7
2016-Apr-05 05:31N 34°06' E 030°34'6819.7
2016-Apr-05 02:05N 34°10' E 029°12'1019.5
2016-Apr-05 01:33N 34°11' E 028°60'4219.6
2016-Apr-04 23:23N 34°13' E 028°09'1619.5
2016-Apr-04 22:33N 34°14' E 027°49'45418.7
2016-Apr-03 22:17N 35°35' E 018°44'1518.6
2016-Apr-03 21:30N 35°39' E 018°26'9518.6
2016-Apr-03 16:22N 36°03' E 016°33'3318.4
2016-Apr-03 14:33N 36°12' E 015°53'5718.1
2016-Apr-03 11:23N 36°27' E 014°44'1518.0
2016-Apr-03 10:33N 36°30' E 014°26'1817.8
2016-Apr-03 09:33N 36°35' E 014°04'1818.4
2016-Apr-03 08:33N 36°39' E 013°42'1818.2
2016-Apr-03 07:33N 36°44' E 013°20'89719.1
2016-Apr-01 08:31N 35°59' W 005°13'24616.0
2016-Mar-31 17:09N 37°45' W 009°50'1418.3
2016-Mar-31 16:23N 37°59' W 009°55'1518.6
2016-Mar-31 15:33N 38°14' W 009°59'1918.6
2016-Mar-31 14:33N 38°32' W 010°05'1818.4
2016-Mar-31 13:33N 38°51' W 010°07'1918.9
2016-Mar-31 12:33N 39°10' W 010°07'70317.6
2016-Mar-29 20:34N 49°50' W 003°22'1717.1
2016-Mar-29 19:33N 49°58' W 002°58'9418.7
2016-Mar-29 14:33N 49°42' W 000°35'1818.1
2016-Mar-29 13:34N 49°33' W 000°11'1313.2
2016-Mar-29 12:33N 49°28' E 000°08'1 1.4
2016-Mar-29 11:33N 49°29' E 000°10'0 0.0
2016-Mar-29 10:33N 49°29' E 000°10'0 0.0
2016-Mar-29 09:33N 49°29' E 000°10'0 0.0
2016-Mar-29 08:33N 49°29' E 000°10'0 0.0
2016-Mar-29 07:33N 49°29' E 000°10'0 0.0
2016-Mar-29 06:33N 49°29' E 000°10'0 0.0
2016-Mar-29 05:33N 49°29' E 000°10'  

Dump ship's entire track history